LPE2474 SPJC-MMMX
Flight info
| Callsign | LPE2474 |
|---|---|
| Flight time | N/A |
| Altitude | 34000 |
| Route | SPJC/16L N0469F340 TELE2F ATATU UV1 TAL UM542 ATENO DCT PUGSU/N0466F360 DCT EKEDA DCT LIXAS UZ512 RADIM UL318 IZT UT157 LARLO LARL4A MMMX/05R |
| Aircraft | B763/H-SDE3FGHIM3RWXY/LB1 |
Departure
| Time | N/A |
|---|---|
| Airport | Jorge Chávez International Airport (SPJC) |
Arrival
| Time | 2026-05-08 02:12 |
|---|---|
| Airport | Mexico City Benito Juárez International Airport (MMMX) |
| Time | Latitude | Longitude | Altitude | Speed | Heading |
|---|---|---|---|---|---|
| 2026-05-08 01:35 | 17.13362 | -96.32698 | 36296 ft | 463 kts | 298° |
| 2026-05-08 01:35 | 17.14942 | -96.35631 | 36303 ft | 463 kts | 298° |
| 2026-05-08 01:36 | 17.18116 | -96.41528 | 36311 ft | 464 kts | 298° |
| 2026-05-08 01:36 | 17.21269 | -96.47388 | 36330 ft | 463 kts | 298° |
| 2026-05-08 01:37 | 17.24429 | -96.53268 | 36327 ft | 464 kts | 298° |
| 2026-05-08 01:37 | 17.27603 | -96.59177 | 36359 ft | 463 kts | 298° |
| 2026-05-08 01:38 | 17.30731 | -96.65009 | 36374 ft | 463 kts | 298° |
| 2026-05-08 01:38 | 17.33934 | -96.70983 | 36374 ft | 463 kts | 298° |
| 2026-05-08 01:39 | 17.37092 | -96.76881 | 36368 ft | 463 kts | 298° |
| 2026-05-08 01:39 | 17.40231 | -96.82746 | 36377 ft | 463 kts | 298° |
| 2026-05-08 01:40 | 17.43363 | -96.88605 | 36370 ft | 463 kts | 298° |
| 2026-05-08 01:40 | 17.46514 | -96.94503 | 36376 ft | 463 kts | 298° |
| 2026-05-08 01:41 | 17.49652 | -97.00384 | 36386 ft | 463 kts | 298° |
| 2026-05-08 01:41 | 17.52790 | -97.06270 | 36375 ft | 463 kts | 298° |
| 2026-05-08 01:42 | 17.55932 | -97.12166 | 36354 ft | 463 kts | 298° |
| 2026-05-08 01:42 | 17.59127 | -97.18007 | 36354 ft | 463 kts | 304° |
| 2026-05-08 01:43 | 17.63462 | -97.23059 | 36369 ft | 466 kts | 314° |
| 2026-05-08 01:43 | 17.68113 | -97.27802 | 36381 ft | 466 kts | 315° |
| 2026-05-08 01:44 | 17.72779 | -97.32526 | 36384 ft | 466 kts | 315° |
| 2026-05-08 01:44 | 17.77457 | -97.37255 | 36373 ft | 467 kts | 315° |
| 2026-05-08 01:45 | 17.82132 | -97.41980 | 36350 ft | 467 kts | 315° |
| 2026-05-08 01:45 | 17.86809 | -97.46711 | 36344 ft | 466 kts | 315° |
| 2026-05-08 01:46 | 17.91476 | -97.51434 | 36342 ft | 466 kts | 315° |
| 2026-05-08 01:46 | 17.96183 | -97.56202 | 36329 ft | 467 kts | 315° |
| 2026-05-08 01:47 | 18.00862 | -97.60945 | 36314 ft | 468 kts | 315° |
| 2026-05-08 01:47 | 18.05541 | -97.65690 | 36302 ft | 461 kts | 314° |
| 2026-05-08 01:48 | 18.12389 | -97.72639 | 36284 ft | 456 kts | 314° |
| 2026-05-08 01:48 | 18.16866 | -97.77191 | 36260 ft | 451 kts | 314° |
| 2026-05-08 01:49 | 18.20089 | -97.80469 | 36261 ft | 456 kts | 314° |
| 2026-05-08 01:49 | 18.23940 | -97.84390 | 36243 ft | 451 kts | 314° |
| 2026-05-08 01:50 | 18.26752 | -97.87254 | 35690 ft | 446 kts | 314° |
| 2026-05-08 01:50 | 18.28819 | -97.89359 | 35157 ft | 443 kts | 314° |
| 2026-05-08 01:50 | 18.30620 | -97.91194 | 34712 ft | 441 kts | 314° |
| 2026-05-08 01:51 | 18.32575 | -97.93187 | 34244 ft | 438 kts | 314° |
| 2026-05-08 01:51 | 18.34421 | -97.95071 | 33813 ft | 437 kts | 314° |
| 2026-05-08 01:51 | 18.36556 | -97.97247 | 33334 ft | 437 kts | 314° |
| 2026-05-08 01:51 | 18.38513 | -97.99245 | 32916 ft | 440 kts | 314° |
| 2026-05-08 01:52 | 18.40281 | -98.01048 | 32551 ft | 444 kts | 314° |
| 2026-05-08 01:52 | 18.42554 | -98.03368 | 32119 ft | 448 kts | 314° |
| 2026-05-08 01:52 | 18.44819 | -98.05682 | 31674 ft | 450 kts | 314° |
| 2026-05-08 01:52 | 18.47075 | -98.07986 | 31231 ft | 450 kts | 314° |
| 2026-05-08 01:53 | 18.49321 | -98.10281 | 30789 ft | 450 kts | 314° |
| 2026-05-08 01:53 | 18.51581 | -98.12592 | 30342 ft | 450 kts | 314° |
| 2026-05-08 01:53 | 18.53842 | -98.14905 | 29893 ft | 450 kts | 314° |
| 2026-05-08 01:53 | 18.56119 | -98.17235 | 29435 ft | 449 kts | 314° |
| 2026-05-08 01:54 | 18.58340 | -98.19508 | 28978 ft | 446 kts | 314° |
| 2026-05-08 01:54 | 18.60579 | -98.21800 | 28523 ft | 442 kts | 314° |
| 2026-05-08 01:54 | 18.62790 | -98.24066 | 28086 ft | 437 kts | 314° |
| 2026-05-08 01:54 | 18.64954 | -98.26283 | 27656 ft | 435 kts | 314° |
| 2026-05-08 01:55 | 18.67126 | -98.28510 | 27111 ft | 436 kts | 314° |
| 2026-05-08 01:55 | 18.69326 | -98.30767 | 26578 ft | 434 kts | 314° |
| 2026-05-08 01:55 | 18.71479 | -98.32973 | 26109 ft | 432 kts | 314° |
| 2026-05-08 01:55 | 18.73602 | -98.35138 | 26058 ft | 418 kts | 314° |
| 2026-05-08 01:56 | 18.75712 | -98.37305 | 25955 ft | 419 kts | 312° |
| 2026-05-08 01:56 | 18.77590 | -98.39708 | 25302 ft | 437 kts | 302° |
| 2026-05-08 01:56 | 18.79101 | -98.42530 | 24636 ft | 437 kts | 291° |
| 2026-05-08 01:56 | 18.80084 | -98.45503 | 24144 ft | 427 kts | 280° |
| 2026-05-08 01:57 | 18.80504 | -98.48504 | 24115 ft | 407 kts | 270° |
| 2026-05-08 01:57 | 18.80427 | -98.51479 | 23573 ft | 401 kts | 259° |
| 2026-05-08 01:57 | 18.79830 | -98.54326 | 23029 ft | 396 kts | 249° |
| 2026-05-08 01:57 | 18.78951 | -98.57072 | 22535 ft | 393 kts | 253° |
| 2026-05-08 01:58 | 18.78562 | -98.59916 | 22057 ft | 394 kts | 264° |
| 2026-05-08 01:58 | 18.78551 | -98.62827 | 21536 ft | 395 kts | 269° |
| 2026-05-08 01:58 | 18.78722 | -98.65720 | 21104 ft | 392 kts | 271° |
| 2026-05-08 01:58 | 18.78928 | -98.68027 | 20742 ft | 389 kts | 275° |
| 2026-05-08 01:59 | 18.79642 | -98.70915 | 20221 ft | 392 kts | 291° |
| 2026-05-08 01:59 | 18.80976 | -98.73328 | 19868 ft | 388 kts | 307° |
| 2026-05-08 01:59 | 18.82904 | -98.75268 | 19848 ft | 366 kts | 324° |
| 2026-05-08 01:59 | 18.84966 | -98.76681 | 19849 ft | 344 kts | 323° |
| 2026-05-08 02:00 | 18.86264 | -98.77672 | 19777 ft | 333 kts | 322° |
| 2026-05-08 02:00 | 18.88115 | -98.79078 | 19379 ft | 328 kts | 323° |
| 2026-05-08 02:00 | 18.89967 | -98.80465 | 18957 ft | 324 kts | 323° |
| 2026-05-08 02:00 | 18.91815 | -98.81844 | 18532 ft | 320 kts | 323° |
| 2026-05-08 02:01 | 18.93591 | -98.83167 | 18152 ft | 318 kts | 323° |
| 2026-05-08 02:01 | 18.95241 | -98.84393 | 17908 ft | 315 kts | 323° |
| 2026-05-08 02:01 | 18.97025 | -98.85720 | 17632 ft | 312 kts | 323° |
| 2026-05-08 02:01 | 18.98802 | -98.87041 | 17408 ft | 302 kts | 323° |
| 2026-05-08 02:02 | 19.00516 | -98.88316 | 16972 ft | 299 kts | 324° |
| 2026-05-08 02:02 | 19.02211 | -98.89577 | 16614 ft | 293 kts | 323° |
| 2026-05-08 02:02 | 19.03861 | -98.90804 | 16324 ft | 288 kts | 323° |
| 2026-05-08 02:02 | 19.05418 | -98.91964 | 16049 ft | 287 kts | 324° |
| 2026-05-08 02:03 | 19.07068 | -98.93192 | 15760 ft | 286 kts | 324° |
| 2026-05-08 02:03 | 19.08681 | -98.94392 | 15489 ft | 285 kts | 323° |
| 2026-05-08 02:03 | 19.10253 | -98.95563 | 15223 ft | 283 kts | 323° |
| 2026-05-08 02:03 | 19.11739 | -98.96670 | 14968 ft | 283 kts | 324° |
| 2026-05-08 02:04 | 19.13338 | -98.97862 | 14687 ft | 281 kts | 324° |
| 2026-05-08 02:04 | 19.14809 | -98.98958 | 14426 ft | 281 kts | 323° |
| 2026-05-08 02:04 | 19.16377 | -99.00126 | 14158 ft | 280 kts | 323° |
| 2026-05-08 02:04 | 19.17959 | -99.01367 | 13859 ft | 279 kts | 317° |
| 2026-05-08 02:05 | 19.19335 | -99.02722 | 13573 ft | 280 kts | 315° |
| 2026-05-08 02:05 | 19.20653 | -99.04031 | 13220 ft | 279 kts | 315° |
| 2026-05-08 02:05 | 19.22052 | -99.05418 | 12880 ft | 274 kts | 315° |
| 2026-05-08 02:05 | 19.23449 | -99.06806 | 12481 ft | 273 kts | 315° |
| 2026-05-08 02:06 | 19.24740 | -99.08290 | 12075 ft | 270 kts | 306° |
| 2026-05-08 02:06 | 19.25864 | -99.09859 | 11662 ft | 269 kts | 307° |
| 2026-05-08 02:06 | 19.27011 | -99.11436 | 11245 ft | 268 kts | 307° |
| 2026-05-08 02:06 | 19.28161 | -99.13026 | 10785 ft | 269 kts | 308° |
| 2026-05-08 02:07 | 19.29303 | -99.14606 | 10332 ft | 269 kts | 308° |
| 2026-05-08 02:07 | 19.30426 | -99.16161 | 10173 ft | 256 kts | 308° |
| 2026-05-08 02:07 | 19.31485 | -99.17636 | 10187 ft | 244 kts | 305° |
| 2026-05-08 02:07 | 19.32521 | -99.18996 | 10068 ft | 229 kts | 325° |
| 2026-05-08 02:08 | 19.33909 | -99.19682 | 9856 ft | 215 kts | 352° |
| 2026-05-08 02:08 | 19.35377 | -99.19697 | 9616 ft | 210 kts | 14° |
| 2026-05-08 02:08 | 19.36733 | -99.19189 | 9467 ft | 199 kts | 37° |
| 2026-05-08 02:08 | 19.37483 | -99.18195 | 9497 ft | 174 kts | 68° |
| 2026-05-08 02:09 | 19.37987 | -99.17059 | 9284 ft | 169 kts | 62° |
| 2026-05-08 02:09 | 19.38547 | -99.16000 | 9024 ft | 156 kts | 60° |
| 2026-05-08 02:09 | 19.39064 | -99.15043 | 8873 ft | 146 kts | 59° |
| 2026-05-08 02:09 | 19.39578 | -99.14114 | 8711 ft | 158 kts | 59° |
| 2026-05-08 02:10 | 19.40155 | -99.13081 | 8472 ft | 160 kts | 58° |
| 2026-05-08 02:10 | 19.40710 | -99.12090 | 8223 ft | 154 kts | 58° |
| 2026-05-08 02:10 | 19.41250 | -99.11134 | 7977 ft | 150 kts | 58° |
| 2026-05-08 02:10 | 19.41773 | -99.10190 | 7751 ft | 148 kts | 56° |
| 2026-05-08 02:11 | 19.42313 | -99.09258 | 7565 ft | 149 kts | 56° |
| 2026-05-08 02:11 | 19.42850 | -99.08312 | 7403 ft | 150 kts | 56° |
| 2026-05-08 02:11 | 19.43231 | -99.07629 | 7352 ft | 143 kts | 56° |
| 2026-05-08 02:11 | 19.43628 | -99.06928 | 7345 ft | 83 kts | 59° |
| 2026-05-08 02:12 | 19.43822 | -99.06580 | 7343 ft | 34 kts | 60° |
| 2026-05-08 02:12 | 19.43944 | -99.06365 | 7341 ft | 31 kts | 65° |
| 2026-05-08 02:12 | 19.43965 | -99.06197 | 7340 ft | 16 kts | 88° |
| 2026-05-08 02:12 | 19.43967 | -99.06132 | 7339 ft | 6 kts | 90° |
| 2026-05-08 02:13 | 19.43966 | -99.06088 | 7339 ft | 5 kts | 91° |
| 2026-05-08 02:13 | 19.43960 | -99.06051 | 7339 ft | 3 kts | 131° |
| 2026-05-08 02:13 | 19.43940 | -99.06051 | 7339 ft | 4 kts | 200° |
| 2026-05-08 02:13 | 19.43907 | -99.06086 | 7339 ft | 9 kts | 238° |
| 2026-05-08 02:14 | 19.43873 | -99.06149 | 7339 ft | 9 kts | 240° |
| 2026-05-08 02:14 | 19.43845 | -99.06202 | 7339 ft | 7 kts | 241° |
| 2026-05-08 02:14 | 19.43823 | -99.06242 | 7340 ft | 5 kts | 239° |
| 2026-05-08 02:14 | 19.43796 | -99.06288 | 7340 ft | 8 kts | 239° |
| 2026-05-08 02:15 | 19.43766 | -99.06342 | 7341 ft | 7 kts | 239° |
| 2026-05-08 02:15 | 19.43743 | -99.06383 | 7341 ft | 6 kts | 239° |
| 2026-05-08 02:15 | 19.43723 | -99.06421 | 7341 ft | 6 kts | 240° |
| 2026-05-08 02:15 | 19.43700 | -99.06464 | 7342 ft | 6 kts | 240° |
| 2026-05-08 02:16 | 19.43674 | -99.06509 | 7342 ft | 7 kts | 238° |
| 2026-05-08 02:16 | 19.43650 | -99.06551 | 7342 ft | 6 kts | 240° |
| 2026-05-08 02:16 | 19.43639 | -99.06571 | 7342 ft | 0 kts | 241° |
| 2026-05-08 02:17 | 19.43627 | -99.06595 | 7342 ft | 8 kts | 242° |
| 2026-05-08 02:17 | 19.43595 | -99.06663 | 7343 ft | 10 kts | 236° |
| 2026-05-08 02:17 | 19.43548 | -99.06705 | 7343 ft | 7 kts | 210° |
| 2026-05-08 02:17 | 19.43504 | -99.06730 | 7343 ft | 6 kts | 207° |
| 2026-05-08 02:18 | 19.43450 | -99.06760 | 7343 ft | 12 kts | 212° |
| 2026-05-08 02:18 | 19.43403 | -99.06855 | 7344 ft | 15 kts | 250° |
| 2026-05-08 02:18 | 19.43353 | -99.06947 | 7345 ft | 12 kts | 241° |
| 2026-05-08 02:18 | 19.43312 | -99.07022 | 7345 ft | 10 kts | 240° |
| 2026-05-08 02:19 | 19.43280 | -99.07082 | 7345 ft | 8 kts | 240° |
| 2026-05-08 02:19 | 19.43258 | -99.07137 | 7346 ft | 9 kts | 257° |
| 2026-05-08 02:19 | 19.43269 | -99.07230 | 7346 ft | 16 kts | 296° |
| 2026-05-08 02:19 | 19.43301 | -99.07289 | 7347 ft | 0 kts | 299° |
| 2026-05-08 02:21 | 19.43301 | -99.07290 | 7347 ft | 0 kts | 299° |
| 2026-05-08 02:21 | 19.43302 | -99.07291 | 7347 ft | 0 kts | 299° |
| 2026-05-08 02:22 | 19.43309 | -99.07304 | 7347 ft | 6 kts | 299° |
| 2026-05-08 02:23 | 19.43349 | -99.07385 | 7348 ft | 18 kts | 297° |
| 2026-05-08 02:23 | 19.43429 | -99.07542 | 7350 ft | 28 kts | 299° |
| 2026-05-08 02:23 | 19.43463 | -99.07604 | 7351 ft | 0 kts | 301° |
| 2026-05-08 02:25 | 19.43465 | -99.07608 | 7351 ft | 3 kts | 301° |
| 2026-05-08 02:25 | 19.43491 | -99.07652 | 7351 ft | 10 kts | 301° |
| 2026-05-08 02:25 | 19.43539 | -99.07738 | 7352 ft | 16 kts | 299° |
| 2026-05-08 02:25 | 19.43564 | -99.07784 | 7352 ft | 0 kts | 300° |
| 2026-05-08 02:31 | 19.43573 | -99.07803 | 7352 ft | 6 kts | 294° |
| 2026-05-08 02:32 | 19.43558 | -99.07867 | 7353 ft | 12 kts | 239° |
| 2026-05-08 02:32 | 19.43515 | -99.07944 | 7354 ft | 10 kts | 239° |
| 2026-05-08 02:32 | 19.43486 | -99.07999 | 7354 ft | 4 kts | 268° |
| 2026-05-08 02:32 | 19.43503 | -99.08021 | 7355 ft | 4 kts | 322° |
| 2026-05-08 02:33 | 19.43528 | -99.08036 | 7355 ft | 3 kts | 330° |
| 2026-05-08 02:33 | 19.43548 | -99.08048 | 7355 ft | 2 kts | 331° |
| 2026-05-08 02:33 | 19.43551 | -99.08051 | 7355 ft | 0 kts | 329° |